sensor_id;sensor_type;location;lat;lon;timestamp;temperature;humidity
12408;DHT22;6268;48.188;17.134;2023-03-01T00:01:52;1.80;99.90
12408;DHT22;6268;48.188;17.134;2023-03-01T00:04:21;1.80;99.90
12408;DHT22;6268;48.188;17.134;2023-03-01T00:06:50;1.80;99.90
12408;DHT22;6268;48.188;17.134;2023-03-01T00:09:18;1.80;99.90
12408;DHT22;6268;48.188;17.134;2023-03-01T00:11:48;1.90;99.90
12408;DHT22;6268;48.188;17.134;2023-03-01T00:14:17;1.90;99.90
12408;DHT22;6268;48.188;17.134;2023-03-01T00:16:47;1.90;99.90
12408;DHT22;6268;48.188;17.134;2023-03-01T00:19:18;1.90;99.90
12408;DHT22;6268;48.188;17.134;2023-03-01T00:21:49;1.90;99.90
12408;DHT22;6268;48.188;17.134;2023-03-01T00:24:18;1.90;99.90
12408;DHT22;6268;48.188;17.134;2023-03-01T00:26:46;1.80;99.90
12408;DHT22;6268;48.188;17.134;2023-03-01T00:29:15;1.90;99.90
12408;DHT22;6268;48.188;17.134;2023-03-01T00:31:44;1.80;99.90
12408;DHT22;6268;48.188;17.134;2023-03-01T00:34:14;1.80;99.90
12408;DHT22;6268;48.188;17.134;2023-03-01T00:36:43;1.80;99.90
12408;DHT22;6268;48.188;17.134;2023-03-01T00:39:14;1.70;99.90
12408;DHT22;6268;48.188;17.134;2023-03-01T00:41:44;1.80;99.90
12408;DHT22;6268;48.188;17.134;2023-03-01T00:44:13;1.80;99.90
12408;DHT22;6268;48.188;17.134;2023-03-01T00:46:41;1.80;99.90
12408;DHT22;6268;48.188;17.134;2023-03-01T00:49:10;1.80;99.90
12408;DHT22;6268;48.188;17.134;2023-03-01T00:51:40;1.90;99.90
12408;DHT22;6268;48.188;17.134;2023-03-01T00:54:10;1.90;99.90
12408;DHT22;6268;48.188;17.134;2023-03-01T00:56:38;1.90;99.90
12408;DHT22;6268;48.188;17.134;2023-03-01T00:59:07;2.00;99.90
12408;DHT22;6268;48.188;17.134;2023-03-01T01:01:36;2.00;99.90
12408;DHT22;6268;48.188;17.134;2023-03-01T01:04:07;2.00;99.90
12408;DHT22;6268;48.188;17.134;2023-03-01T01:06:41;2.00;99.90
12408;DHT22;6268;48.188;17.134;2023-03-01T01:09:13;2.10;99.90
12408;DHT22;6268;48.188;17.134;2023-03-01T01:11:45;2.10;99.90
12408;DHT22;6268;48.188;17.134;2023-03-01T01:14:16;2.10;99.90
12408;DHT22;6268;48.188;17.134;2023-03-01T01:16:45;2.10;99.90
12408;DHT22;6268;48.188;17.134;2023-03-01T01:19:15;2.10;99.90
12408;DHT22;6268;48.188;17.134;2023-03-01T01:21:45;2.10;99.90
12408;DHT22;6268;48.188;17.134;2023-03-01T01:24:15;2.20;99.90
12408;DHT22;6268;48.188;17.134;2023-03-01T01:26:45;2.20;99.90
12408;DHT22;6268;48.188;17.134;2023-03-01T01:29:14;2.30;99.90
12408;DHT22;6268;48.188;17.134;2023-03-01T01:31:43;2.30;99.90
12408;DHT22;6268;48.188;17.134;2023-03-01T01:34:15;2.40;99.90
12408;DHT22;6268;48.188;17.134;2023-03-01T01:36:49;2.40;99.90
12408;DHT22;6268;48.188;17.134;2023-03-01T01:39:20;2.40;99.90
12408;DHT22;6268;48.188;17.134;2023-03-01T01:41:49;2.40;99.90
12408;DHT22;6268;48.188;17.134;2023-03-01T01:44:20;2.40;99.90
12408;DHT22;6268;48.188;17.134;2023-03-01T01:46:53;2.40;99.90
12408;DHT22;6268;48.188;17.134;2023-03-01T01:49:28;2.40;99.90
12408;DHT22;6268;48.188;17.134;2023-03-01T01:52:07;2.40;99.90
12408;DHT22;6268;48.188;17.134;2023-03-01T01:54:43;2.50;99.90
12408;DHT22;6268;48.188;17.134;2023-03-01T01:57:17;2.40;99.90
12408;DHT22;6268;48.188;17.134;2023-03-01T01:59:51;2.40;99.90
12408;DHT22;6268;48.188;17.134;2023-03-01T02:02:23;2.40;99.90
12408;DHT22;6268;48.188;17.134;2023-03-01T02:04:58;2.50;99.90
12408;DHT22;6268;48.188;17.134;2023-03-01T02:07:33;2.50;99.90
12408;DHT22;6268;48.188;17.134;2023-03-01T02:10:02;2.50;99.90
12408;DHT22;6268;48.188;17.134;2023-03-01T02:12:32;2.60;99.90
12408;DHT22;6268;48.188;17.134;2023-03-01T02:15:03;2.60;99.90
12408;DHT22;6268;48.188;17.134;2023-03-01T02:17:32;2.60;99.90
12408;DHT22;6268;48.188;17.134;2023-03-01T02:20:11;2.60;99.90
12408;DHT22;6268;48.188;17.134;2023-03-01T02:22:50;2.60;99.90
12408;DHT22;6268;48.188;17.134;2023-03-01T02:25:46;2.60;99.90
12408;DHT22;6268;48.188;17.134;2023-03-01T02:28:29;2.70;99.90
12408;DHT22;6268;48.188;17.134;2023-03-01T02:30:59;2.70;99.90
12408;DHT22;6268;48.188;17.134;2023-03-01T02:33:47;2.80;99.90
12408;DHT22;6268;48.188;17.134;2023-03-01T02:36:19;2.80;99.90
12408;DHT22;6268;48.188;17.134;2023-03-01T02:38:52;2.80;99.90
12408;DHT22;6268;48.188;17.134;2023-03-01T02:41:25;2.80;99.90
12408;DHT22;6268;48.188;17.134;2023-03-01T02:44:01;2.80;99.90
12408;DHT22;6268;48.188;17.134;2023-03-01T02:46:30;2.90;99.90
12408;DHT22;6268;48.188;17.134;2023-03-01T02:49:00;2.90;99.90
12408;DHT22;6268;48.188;17.134;2023-03-01T02:51:45;3.00;99.90
12408;DHT22;6268;48.188;17.134;2023-03-01T02:54:25;2.90;99.90
12408;DHT22;6268;48.188;17.134;2023-03-01T02:57:00;2.90;99.90
12408;DHT22;6268;48.188;17.134;2023-03-01T02:59:34;2.90;99.90
12408;DHT22;6268;48.188;17.134;2023-03-01T03:02:07;2.90;99.90
12408;DHT22;6268;48.188;17.134;2023-03-01T03:04:36;3.00;99.90
12408;DHT22;6268;48.188;17.134;2023-03-01T03:07:05;3.00;99.90
12408;DHT22;6268;48.188;17.134;2023-03-01T03:09:33;3.00;99.90
12408;DHT22;6268;48.188;17.134;2023-03-01T03:12:03;3.00;99.90
12408;DHT22;6268;48.188;17.134;2023-03-01T03:14:33;3.00;99.90
12408;DHT22;6268;48.188;17.134;2023-03-01T03:17:02;3.00;99.90
12408;DHT22;6268;48.188;17.134;2023-03-01T03:19:33;3.10;99.90
12408;DHT22;6268;48.188;17.134;2023-03-01T03:22:02;3.00;99.90
12408;DHT22;6268;48.188;17.134;2023-03-01T03:24:31;3.00;99.90
12408;DHT22;6268;48.188;17.134;2023-03-01T03:27:06;3.00;99.90
12408;DHT22;6268;48.188;17.134;2023-03-01T03:29:36;3.00;99.90
12408;DHT22;6268;48.188;17.134;2023-03-01T03:32:05;3.00;99.90
12408;DHT22;6268;48.188;17.134;2023-03-01T03:34:34;3.10;99.90
12408;DHT22;6268;48.188;17.134;2023-03-01T03:37:03;3.00;99.90
12408;DHT22;6268;48.188;17.134;2023-03-01T03:39:52;3.00;99.90
12408;DHT22;6268;48.188;17.134;2023-03-01T03:42:22;3.10;99.90
12408;DHT22;6268;48.188;17.134;2023-03-01T03:44:52;3.10;99.90
12408;DHT22;6268;48.188;17.134;2023-03-01T03:47:21;3.10;99.90
12408;DHT22;6268;48.188;17.134;2023-03-01T03:49:50;3.20;99.90
12408;DHT22;6268;48.188;17.134;2023-03-01T03:52:19;3.20;99.90
12408;DHT22;6268;48.188;17.134;2023-03-01T03:54:47;3.10;99.90
12408;DHT22;6268;48.188;17.134;2023-03-01T03:57:16;3.10;99.90
12408;DHT22;6268;48.188;17.134;2023-03-01T03:59:45;3.10;99.90
12408;DHT22;6268;48.188;17.134;2023-03-01T04:02:15;3.10;99.90
12408;DHT22;6268;48.188;17.134;2023-03-01T04:04:51;3.20;99.90
12408;DHT22;6268;48.188;17.134;2023-03-01T04:07:20;3.20;99.90
12408;DHT22;6268;48.188;17.134;2023-03-01T04:09:49;3.20;99.90
12408;DHT22;6268;48.188;17.134;2023-03-01T04:12:18;3.20;99.90
12408;DHT22;6268;48.188;17.134;2023-03-01T04:14:50;3.20;99.90
12408;DHT22;6268;48.188;17.134;2023-03-01T04:17:20;3.20;99.90
12408;DHT22;6268;48.188;17.134;2023-03-01T04:19:49;3.20;99.90
12408;DHT22;6268;48.188;17.134;2023-03-01T04:22:19;3.20;99.90
12408;DHT22;6268;48.188;17.134;2023-03-01T04:24:48;3.20;99.90
12408;DHT22;6268;48.188;17.134;2023-03-01T04:27:17;3.30;99.90
12408;DHT22;6268;48.188;17.134;2023-03-01T04:29:46;3.20;99.90
12408;DHT22;6268;48.188;17.134;2023-03-01T04:32:14;3.30;99.90
12408;DHT22;6268;48.188;17.134;2023-03-01T04:34:46;3.20;99.90
12408;DHT22;6268;48.188;17.134;2023-03-01T04:37:15;3.30;99.90
12408;DHT22;6268;48.188;17.134;2023-03-01T04:39:44;3.30;99.90
12408;DHT22;6268;48.188;17.134;2023-03-01T04:42:14;3.30;99.90
12408;DHT22;6268;48.188;17.134;2023-03-01T04:44:43;3.40;99.90
12408;DHT22;6268;48.188;17.134;2023-03-01T04:47:13;3.40;99.90
12408;DHT22;6268;48.188;17.134;2023-03-01T04:49:42;3.30;99.90
12408;DHT22;6268;48.188;17.134;2023-03-01T04:52:12;3.40;99.90
12408;DHT22;6268;48.188;17.134;2023-03-01T04:54:41;3.40;99.90
12408;DHT22;6268;48.188;17.134;2023-03-01T04:57:10;3.40;99.90
12408;DHT22;6268;48.188;17.134;2023-03-01T04:59:38;3.40;99.90
12408;DHT22;6268;48.188;17.134;2023-03-01T05:02:07;3.40;99.90
12408;DHT22;6268;48.188;17.134;2023-03-01T05:04:36;3.40;99.90
12408;DHT22;6268;48.188;17.134;2023-03-01T05:07:05;3.40;99.90
12408;DHT22;6268;48.188;17.134;2023-03-01T05:09:36;3.40;99.90
12408;DHT22;6268;48.188;17.134;2023-03-01T05:12:05;3.40;99.90
12408;DHT22;6268;48.188;17.134;2023-03-01T05:14:34;3.40;99.90
12408;DHT22;6268;48.188;17.134;2023-03-01T05:17:03;3.40;99.90
12408;DHT22;6268;48.188;17.134;2023-03-01T05:19:32;3.40;99.90
12408;DHT22;6268;48.188;17.134;2023-03-01T05:22:01;3.50;99.90
12408;DHT22;6268;48.188;17.134;2023-03-01T05:24:32;3.50;99.90
12408;DHT22;6268;48.188;17.134;2023-03-01T05:27:03;3.60;99.90
12408;DHT22;6268;48.188;17.134;2023-03-01T05:29:33;3.60;99.90
12408;DHT22;6268;48.188;17.134;2023-03-01T05:32:03;3.60;99.90
12408;DHT22;6268;48.188;17.134;2023-03-01T05:34:34;3.50;99.90
12408;DHT22;6268;48.188;17.134;2023-03-01T05:37:04;3.60;99.90
12408;DHT22;6268;48.188;17.134;2023-03-01T05:39:36;3.50;99.90
12408;DHT22;6268;48.188;17.134;2023-03-01T05:42:05;3.60;99.90
12408;DHT22;6268;48.188;17.134;2023-03-01T05:44:36;3.60;99.90
12408;DHT22;6268;48.188;17.134;2023-03-01T05:47:05;3.60;99.90
12408;DHT22;6268;48.188;17.134;2023-03-01T05:49:34;3.60;99.90
12408;DHT22;6268;48.188;17.134;2023-03-01T05:52:05;3.60;99.90
12408;DHT22;6268;48.188;17.134;2023-03-01T05:54:36;3.60;99.90
12408;DHT22;6268;48.188;17.134;2023-03-01T05:57:05;3.60;99.90
12408;DHT22;6268;48.188;17.134;2023-03-01T05:59:34;3.60;99.90
12408;DHT22;6268;48.188;17.134;2023-03-01T06:02:03;3.60;99.90
12408;DHT22;6268;48.188;17.134;2023-03-01T06:04:32;3.60;99.90
12408;DHT22;6268;48.188;17.134;2023-03-01T06:07:01;3.60;99.90
12408;DHT22;6268;48.188;17.134;2023-03-01T06:09:30;3.70;99.90
12408;DHT22;6268;48.188;17.134;2023-03-01T06:12:00;3.80;99.90
12408;DHT22;6268;48.188;17.134;2023-03-01T06:14:29;3.80;99.90
12408;DHT22;6268;48.188;17.134;2023-03-01T06:16:58;3.90;99.90
12408;DHT22;6268;48.188;17.134;2023-03-01T06:19:27;4.00;99.90
12408;DHT22;6268;48.188;17.134;2023-03-01T06:21:56;4.10;99.90
12408;DHT22;6268;48.188;17.134;2023-03-01T06:24:25;4.20;99.90
12408;DHT22;6268;48.188;17.134;2023-03-01T06:26:55;4.30;99.90
12408;DHT22;6268;48.188;17.134;2023-03-01T06:29:26;4.30;99.90
12408;DHT22;6268;48.188;17.134;2023-03-01T06:31:55;4.40;99.90
12408;DHT22;6268;48.188;17.134;2023-03-01T06:34:24;4.40;99.90
12408;DHT22;6268;48.188;17.134;2023-03-01T06:36:52;4.40;99.90
12408;DHT22;6268;48.188;17.134;2023-03-01T06:39:21;4.30;99.90
12408;DHT22;6268;48.188;17.134;2023-03-01T06:41:50;4.20;99.90
12408;DHT22;6268;48.188;17.134;2023-03-01T06:44:20;4.20;99.90
12408;DHT22;6268;48.188;17.134;2023-03-01T06:46:50;4.10;99.90
12408;DHT22;6268;48.188;17.134;2023-03-01T06:49:19;4.10;99.90
12408;DHT22;6268;48.188;17.134;2023-03-01T06:51:48;4.20;99.90
12408;DHT22;6268;48.188;17.134;2023-03-01T06:54:17;4.30;99.90
12408;DHT22;6268;48.188;17.134;2023-03-01T06:56:49;4.40;99.90
12408;DHT22;6268;48.188;17.134;2023-03-01T06:59:18;4.50;99.90
12408;DHT22;6268;48.188;17.134;2023-03-01T07:01:47;4.40;99.90
12408;DHT22;6268;48.188;17.134;2023-03-01T07:04:17;4.50;99.90
12408;DHT22;6268;48.188;17.134;2023-03-01T07:06:46;4.50;99.90
12408;DHT22;6268;48.188;17.134;2023-03-01T07:09:22;4.60;99.90
12408;DHT22;6268;48.188;17.134;2023-03-01T07:11:51;4.60;99.90
12408;DHT22;6268;48.188;17.134;2023-03-01T07:14:20;4.60;99.90
12408;DHT22;6268;48.188;17.134;2023-03-01T07:16:51;4.60;99.90
12408;DHT22;6268;48.188;17.134;2023-03-01T07:19:22;4.70;99.90
12408;DHT22;6268;48.188;17.134;2023-03-01T07:21:51;4.80;99.90
12408;DHT22;6268;48.188;17.134;2023-03-01T07:24:20;4.90;99.90
12408;DHT22;6268;48.188;17.134;2023-03-01T07:26:49;4.80;99.90
12408;DHT22;6268;48.188;17.134;2023-03-01T07:29:18;4.80;99.90
12408;DHT22;6268;48.188;17.134;2023-03-01T07:31:47;4.80;99.90
12408;DHT22;6268;48.188;17.134;2023-03-01T07:34:17;4.80;99.90
12408;DHT22;6268;48.188;17.134;2023-03-01T07:36:47;4.90;99.90
12408;DHT22;6268;48.188;17.134;2023-03-01T07:39:16;5.00;99.90
12408;DHT22;6268;48.188;17.134;2023-03-01T07:41:45;5.20;99.90
12408;DHT22;6268;48.188;17.134;2023-03-01T07:44:14;5.30;99.90
12408;DHT22;6268;48.188;17.134;2023-03-01T07:46:44;5.40;99.90
12408;DHT22;6268;48.188;17.134;2023-03-01T07:49:13;5.50;99.90
12408;DHT22;6268;48.188;17.134;2023-03-01T07:51:43;5.50;99.90
12408;DHT22;6268;48.188;17.134;2023-03-01T07:54:13;5.40;99.90
12408;DHT22;6268;48.188;17.134;2023-03-01T07:56:42;5.50;99.20
12408;DHT22;6268;48.188;17.134;2023-03-01T07:59:11;5.50;98.40
12408;DHT22;6268;48.188;17.134;2023-03-01T08:01:39;5.60;97.90
12408;DHT22;6268;48.188;17.134;2023-03-01T08:04:09;5.60;96.70
12408;DHT22;6268;48.188;17.134;2023-03-01T08:06:38;5.60;97.00
12408;DHT22;6268;48.188;17.134;2023-03-01T08:09:07;5.50;97.20
12408;DHT22;6268;48.188;17.134;2023-03-01T08:11:37;5.50;97.00
12408;DHT22;6268;48.188;17.134;2023-03-01T08:14:06;5.40;97.00
12408;DHT22;6268;48.188;17.134;2023-03-01T08:16:35;5.30;97.50
12408;DHT22;6268;48.188;17.134;2023-03-01T08:19:05;5.40;97.60
12408;DHT22;6268;48.188;17.134;2023-03-01T08:21:34;5.50;98.40
12408;DHT22;6268;48.188;17.134;2023-03-01T08:24:05;5.60;97.90
12408;DHT22;6268;48.188;17.134;2023-03-01T08:26:38;5.70;97.10
12408;DHT22;6268;48.188;17.134;2023-03-01T08:29:07;5.70;96.80
12408;DHT22;6268;48.188;17.134;2023-03-01T08:31:38;5.80;95.90
12408;DHT22;6268;48.188;17.134;2023-03-01T08:34:11;5.90;95.70
12408;DHT22;6268;48.188;17.134;2023-03-01T08:36:42;5.90;96.00
12408;DHT22;6268;48.188;17.134;2023-03-01T08:39:14;6.00;95.40
12408;DHT22;6268;48.188;17.134;2023-03-01T08:41:47;6.00;94.80
12408;DHT22;6268;48.188;17.134;2023-03-01T08:44:16;6.30;95.70
12408;DHT22;6268;48.188;17.134;2023-03-01T08:46:45;6.60;95.10
12408;DHT22;6268;48.188;17.134;2023-03-01T08:49:17;7.10;93.50
12408;DHT22;6268;48.188;17.134;2023-03-01T08:51:47;7.70;91.90
12408;DHT22;6268;48.188;17.134;2023-03-01T08:54:18;8.30;89.60
12408;DHT22;6268;48.188;17.134;2023-03-01T08:56:50;8.20;86.80
12408;DHT22;6268;48.188;17.134;2023-03-01T08:59:18;8.40;85.10
12408;DHT22;6268;48.188;17.134;2023-03-01T09:01:47;8.50;84.30
12408;DHT22;6268;48.188;17.134;2023-03-01T09:04:17;9.00;82.40
12408;DHT22;6268;48.188;17.134;2023-03-01T09:06:45;9.20;79.80
12408;DHT22;6268;48.188;17.134;2023-03-01T09:09:16;10.00;77.30
12408;DHT22;6268;48.188;17.134;2023-03-01T09:11:45;10.80;72.20
12408;DHT22;6268;48.188;17.134;2023-03-01T09:14:18;11.20;69.00
12408;DHT22;6268;48.188;17.134;2023-03-01T09:16:47;11.20;66.90
12408;DHT22;6268;48.188;17.134;2023-03-01T09:19:16;11.00;67.40
12408;DHT22;6268;48.188;17.134;2023-03-01T09:21:45;11.20;65.80
12408;DHT22;6268;48.188;17.134;2023-03-01T09:24:20;11.20;66.50
12408;DHT22;6268;48.188;17.134;2023-03-01T09:26:53;11.30;65.20
12408;DHT22;6268;48.188;17.134;2023-03-01T09:29:24;11.70;65.10
12408;DHT22;6268;48.188;17.134;2023-03-01T09:31:53;12.70;61.60
12408;DHT22;6268;48.188;17.134;2023-03-01T09:34:23;12.70;59.90
12408;DHT22;6268;48.188;17.134;2023-03-01T09:36:52;12.90;59.60
12408;DHT22;6268;48.188;17.134;2023-03-01T09:39:21;12.10;58.40
12408;DHT22;6268;48.188;17.134;2023-03-01T09:41:55;12.10;59.60
12408;DHT22;6268;48.188;17.134;2023-03-01T09:44:35;12.40;60.00
12408;DHT22;6268;48.188;17.134;2023-03-01T09:47:18;12.90;59.20
12408;DHT22;6268;48.188;17.134;2023-03-01T09:49:58;12.80;57.80
12408;DHT22;6268;48.188;17.134;2023-03-01T09:52:38;12.50;57.80
12408;DHT22;6268;48.188;17.134;2023-03-01T09:55:13;13.50;57.80
12408;DHT22;6268;48.188;17.134;2023-03-01T09:57:49;14.30;55.70
12408;DHT22;6268;48.188;17.134;2023-03-01T10:00:33;14.70;55.30
12408;DHT22;6268;48.188;17.134;2023-03-01T10:03:16;14.50;53.60
12408;DHT22;6268;48.188;17.134;2023-03-01T10:06:01;13.90;54.20
12408;DHT22;6268;48.188;17.134;2023-03-01T10:08:42;14.20;55.00
12408;DHT22;6268;48.188;17.134;2023-03-01T10:11:24;14.00;54.40
12408;DHT22;6268;48.188;17.134;2023-03-01T10:14:01;13.50;54.10
12408;DHT22;6268;48.188;17.134;2023-03-01T10:16:40;13.10;55.80
12408;DHT22;6268;48.188;17.134;2023-03-01T10:19:27;13.80;55.00
12408;DHT22;6268;48.188;17.134;2023-03-01T10:22:03;14.80;54.20
12408;DHT22;6268;48.188;17.134;2023-03-01T10:24:43;15.40;53.70
12408;DHT22;6268;48.188;17.134;2023-03-01T10:27:17;15.10;52.10
12408;DHT22;6268;48.188;17.134;2023-03-01T10:29:57;14.10;52.20
12408;DHT22;6268;48.188;17.134;2023-03-01T10:32:34;13.50;54.20
12408;DHT22;6268;48.188;17.134;2023-03-01T10:35:16;13.80;53.60
12408;DHT22;6268;48.188;17.134;2023-03-01T10:37:58;13.90;54.10
12408;DHT22;6268;48.188;17.134;2023-03-01T10:40:32;14.40;54.10
12408;DHT22;6268;48.188;17.134;2023-03-01T10:43:04;14.50;52.40
12408;DHT22;6268;48.188;17.134;2023-03-01T10:45:37;14.00;52.90
12408;DHT22;6268;48.188;17.134;2023-03-01T10:48:14;13.70;53.90
12408;DHT22;6268;48.188;17.134;2023-03-01T10:50:46;13.90;53.40
12408;DHT22;6268;48.188;17.134;2023-03-01T10:53:26;13.30;53.60
12408;DHT22;6268;48.188;17.134;2023-03-01T10:56:00;13.50;54.70
12408;DHT22;6268;48.188;17.134;2023-03-01T10:58:32;14.00;53.20
12408;DHT22;6268;48.188;17.134;2023-03-01T11:01:04;13.00;53.50
12408;DHT22;6268;48.188;17.134;2023-03-01T11:03:37;12.50;55.40
12408;DHT22;6268;48.188;17.134;2023-03-01T11:06:20;13.00;55.90
12408;DHT22;6268;48.188;17.134;2023-03-01T11:08:50;13.70;54.80
12408;DHT22;6268;48.188;17.134;2023-03-01T11:11:32;14.20;54.30
12408;DHT22;6268;48.188;17.134;2023-03-01T11:14:07;14.80;53.20
12408;DHT22;6268;48.188;17.134;2023-03-01T11:17:00;14.70;52.70
12408;DHT22;6268;48.188;17.134;2023-03-01T11:19:32;14.70;52.20
12408;DHT22;6268;48.188;17.134;2023-03-01T11:22:06;13.90;52.70
12408;DHT22;6268;48.188;17.134;2023-03-01T11:24:42;12.80;54.70
12408;DHT22;6268;48.188;17.134;2023-03-01T11:27:32;12.90;55.50
12408;DHT22;6268;48.188;17.134;2023-03-01T11:30:25;13.00;55.40
12408;DHT22;6268;48.188;17.134;2023-03-01T11:33:20;12.20;56.20
12408;DHT22;6268;48.188;17.134;2023-03-01T11:36:05;11.70;57.20
12408;DHT22;6268;48.188;17.134;2023-03-01T11:38:37;11.30;58.10
12408;DHT22;6268;48.188;17.134;2023-03-01T11:41:11;11.30;58.60
12408;DHT22;6268;48.188;17.134;2023-03-01T11:43:49;11.10;59.10
12408;DHT22;6268;48.188;17.134;2023-03-01T11:49:51;11.10;59.70
12408;DHT22;6268;48.188;17.134;2023-03-01T11:52:39;11.40;60.10
12408;DHT22;6268;48.188;17.134;2023-03-01T11:55:25;11.10;60.80
12408;DHT22;6268;48.188;17.134;2023-03-01T11:58:29;10.90;61.30
12408;DHT22;6268;48.188;17.134;2023-03-01T12:01:20;11.10;61.90
12408;DHT22;6268;48.188;17.134;2023-03-01T12:04:16;11.00;62.10
12408;DHT22;6268;48.188;17.134;2023-03-01T12:07:10;10.90;62.70
12408;DHT22;6268;48.188;17.134;2023-03-01T12:09:54;10.80;62.70
12408;DHT22;6268;48.188;17.134;2023-03-01T12:12:52;10.90;63.80
12408;DHT22;6268;48.188;17.134;2023-03-01T12:19:10;10.60;63.90
12408;DHT22;6268;48.188;17.134;2023-03-01T12:22:00;10.50;64.40
12408;DHT22;6268;48.188;17.134;2023-03-01T12:24:55;10.30;65.00
12408;DHT22;6268;48.188;17.134;2023-03-01T12:28:09;10.40;65.60
12408;DHT22;6268;48.188;17.134;2023-03-01T12:34:41;10.40;66.00
12408;DHT22;6268;48.188;17.134;2023-03-01T12:37:25;10.60;65.50
12408;DHT22;6268;48.188;17.134;2023-03-01T12:40:21;10.60;65.80
12408;DHT22;6268;48.188;17.134;2023-03-01T12:43:08;10.80;65.20
12408;DHT22;6268;48.188;17.134;2023-03-01T12:45:54;10.80;65.30
12408;DHT22;6268;48.188;17.134;2023-03-01T12:48:41;10.90;64.80
12408;DHT22;6268;48.188;17.134;2023-03-01T12:51:19;11.00;64.40
12408;DHT22;6268;48.188;17.134;2023-03-01T12:53:54;11.00;64.20
12408;DHT22;6268;48.188;17.134;2023-03-01T12:56:29;10.90;64.80
12408;DHT22;6268;48.188;17.134;2023-03-01T12:59:07;11.00;64.80
12408;DHT22;6268;48.188;17.134;2023-03-01T13:01:48;11.00;64.50
12408;DHT22;6268;48.188;17.134;2023-03-01T13:04:27;10.90;64.30
12408;DHT22;6268;48.188;17.134;2023-03-01T13:07:16;10.70;65.30
12408;DHT22;6268;48.188;17.134;2023-03-01T13:10:04;10.70;65.80
12408;DHT22;6268;48.188;17.134;2023-03-01T13:13:02;10.70;66.30
12408;DHT22;6268;48.188;17.134;2023-03-01T13:15:42;10.60;66.80
12408;DHT22;6268;48.188;17.134;2023-03-01T13:18:31;10.40;67.10
12408;DHT22;6268;48.188;17.134;2023-03-01T13:21:02;10.30;68.00
12408;DHT22;6268;48.188;17.134;2023-03-01T13:23:37;10.40;68.30
12408;DHT22;6268;48.188;17.134;2023-03-01T13:26:11;10.60;67.60
12408;DHT22;6268;48.188;17.134;2023-03-01T13:29:01;10.70;67.40
12408;DHT22;6268;48.188;17.134;2023-03-01T13:31:59;10.70;67.60
12408;DHT22;6268;48.188;17.134;2023-03-01T13:38:36;10.80;67.70
12408;DHT22;6268;48.188;17.134;2023-03-01T13:41:08;10.90;67.70
12408;DHT22;6268;48.188;17.134;2023-03-01T13:43:38;10.60;68.00
12408;DHT22;6268;48.188;17.134;2023-03-01T13:46:12;10.50;69.10
12408;DHT22;6268;48.188;17.134;2023-03-01T13:48:50;10.50;69.40
12408;DHT22;6268;48.188;17.134;2023-03-01T13:51:25;10.50;69.30
12408;DHT22;6268;48.188;17.134;2023-03-01T13:53:57;10.70;69.00
12408;DHT22;6268;48.188;17.134;2023-03-01T13:56:28;10.80;76.90
12408;DHT22;6268;48.188;17.134;2023-03-01T13:59:06;10.80;72.10
12408;DHT22;6268;48.188;17.134;2023-03-01T14:01:42;10.90;70.00
12408;DHT22;6268;48.188;17.134;2023-03-01T14:04:22;10.50;69.30
12408;DHT22;6268;48.188;17.134;2023-03-01T14:07:09;10.20;70.90
12408;DHT22;6268;48.188;17.134;2023-03-01T14:09:42;10.00;71.40
12408;DHT22;6268;48.188;17.134;2023-03-01T14:12:24;9.90;73.40
12408;DHT22;6268;48.188;17.134;2023-03-01T14:15:05;10.10;72.20
12408;DHT22;6268;48.188;17.134;2023-03-01T14:17:50;10.30;71.60
12408;DHT22;6268;48.188;17.134;2023-03-01T14:20:26;10.10;72.30
12408;DHT22;6268;48.188;17.134;2023-03-01T14:23:01;10.30;72.50
12408;DHT22;6268;48.188;17.134;2023-03-01T14:25:38;10.00;72.70
12408;DHT22;6268;48.188;17.134;2023-03-01T14:28:17;9.90;75.60
12408;DHT22;6268;48.188;17.134;2023-03-01T14:30:50;10.00;73.80
12408;DHT22;6268;48.188;17.134;2023-03-01T14:33:23;10.00;73.60
12408;DHT22;6268;48.188;17.134;2023-03-01T14:35:56;10.00;74.20
12408;DHT22;6268;48.188;17.134;2023-03-01T14:38:32;9.80;76.00
12408;DHT22;6268;48.188;17.134;2023-03-01T14:41:08;9.80;76.20
12408;DHT22;6268;48.188;17.134;2023-03-01T14:43:39;9.80;76.70
12408;DHT22;6268;48.188;17.134;2023-03-01T14:46:19;9.80;78.70
12408;DHT22;6268;48.188;17.134;2023-03-01T14:48:50;9.60;78.50
12408;DHT22;6268;48.188;17.134;2023-03-01T14:51:21;9.70;79.00
12408;DHT22;6268;48.188;17.134;2023-03-01T14:53:50;9.70;78.80
12408;DHT22;6268;48.188;17.134;2023-03-01T14:56:21;9.60;79.00
12408;DHT22;6268;48.188;17.134;2023-03-01T14:58:57;9.60;79.80
12408;DHT22;6268;48.188;17.134;2023-03-01T15:01:27;9.60;80.70
12408;DHT22;6268;48.188;17.134;2023-03-01T15:03:57;9.60;80.80
12408;DHT22;6268;48.188;17.134;2023-03-01T15:06:28;9.60;80.80
12408;DHT22;6268;48.188;17.134;2023-03-01T15:08:58;9.80;80.40
12408;DHT22;6268;48.188;17.134;2023-03-01T15:11:30;9.70;80.20
12408;DHT22;6268;48.188;17.134;2023-03-01T15:14:00;9.50;81.60
12408;DHT22;6268;48.188;17.134;2023-03-01T15:16:30;9.50;81.80
12408;DHT22;6268;48.188;17.134;2023-03-01T15:19:03;9.50;82.10
12408;DHT22;6268;48.188;17.134;2023-03-01T15:21:35;9.50;82.40
12408;DHT22;6268;48.188;17.134;2023-03-01T15:24:08;9.50;83.00
12408;DHT22;6268;48.188;17.134;2023-03-01T15:26:52;9.50;82.80
12408;DHT22;6268;48.188;17.134;2023-03-01T15:29:26;9.50;82.60
12408;DHT22;6268;48.188;17.134;2023-03-01T15:32:00;9.60;82.70
12408;DHT22;6268;48.188;17.134;2023-03-01T15:34:34;9.60;82.10
12408;DHT22;6268;48.188;17.134;2023-03-01T15:37:05;9.60;84.80
12408;DHT22;6268;48.188;17.134;2023-03-01T15:39:57;9.50;83.60
12408;DHT22;6268;48.188;17.134;2023-03-01T15:42:39;9.30;83.80
12408;DHT22;6268;48.188;17.134;2023-03-01T15:45:09;9.30;84.70
12408;DHT22;6268;48.188;17.134;2023-03-01T15:47:40;9.30;84.90
12408;DHT22;6268;48.188;17.134;2023-03-01T15:50:17;9.30;85.20
12408;DHT22;6268;48.188;17.134;2023-03-01T15:52:49;9.30;85.80
12408;DHT22;6268;48.188;17.134;2023-03-01T15:55:21;9.30;86.00
12408;DHT22;6268;48.188;17.134;2023-03-01T15:57:59;9.30;85.60
12408;DHT22;6268;48.188;17.134;2023-03-01T16:00:31;9.30;85.40
12408;DHT22;6268;48.188;17.134;2023-03-01T16:02:59;9.30;85.20
12408;DHT22;6268;48.188;17.134;2023-03-01T16:05:30;9.30;85.00
12408;DHT22;6268;48.188;17.134;2023-03-01T16:08:02;9.30;85.70
12408;DHT22;6268;48.188;17.134;2023-03-01T16:10:32;9.40;85.70
12408;DHT22;6268;48.188;17.134;2023-03-01T16:13:03;9.40;85.90
12408;DHT22;6268;48.188;17.134;2023-03-01T16:15:33;9.30;87.10
12408;DHT22;6268;48.188;17.134;2023-03-01T16:18:03;9.30;87.30
12408;DHT22;6268;48.188;17.134;2023-03-01T16:20:34;9.20;87.80
12408;DHT22;6268;48.188;17.134;2023-03-01T16:23:06;9.20;88.80
12408;DHT22;6268;48.188;17.134;2023-03-01T16:25:37;9.10;89.60
12408;DHT22;6268;48.188;17.134;2023-03-01T16:28:07;9.10;89.90
12408;DHT22;6268;48.188;17.134;2023-03-01T16:30:38;9.00;89.80
12408;DHT22;6268;48.188;17.134;2023-03-01T16:33:07;8.90;90.40
12408;DHT22;6268;48.188;17.134;2023-03-01T16:35:55;8.90;90.80
12408;DHT22;6268;48.188;17.134;2023-03-01T16:38:27;8.80;90.90